sensor_id;sensor_type;location;lat;lon;timestamp;pressure;altitude;pressure_sealevel;temperature;humidity
70781;BME280;59514;48.810;2.134;2023-06-14T00:00:30;99796.06;;;19.57;51.40
70781;BME280;59514;48.810;2.134;2023-06-14T00:02:56;99788.13;;;19.74;50.94
70781;BME280;59514;48.810;2.134;2023-06-14T00:05:22;99791.97;;;19.73;52.30
70781;BME280;59514;48.810;2.134;2023-06-14T00:07:48;99789.16;;;19.78;51.31
70781;BME280;59514;48.810;2.134;2023-06-14T00:10:14;99794.59;;;19.78;50.91
70781;BME280;59514;48.810;2.134;2023-06-14T00:12:40;99796.75;;;19.82;52.03
70781;BME280;59514;48.810;2.134;2023-06-14T00:15:06;99790.78;;;19.80;51.49
70781;BME280;59514;48.810;2.134;2023-06-14T00:17:32;99796.22;;;19.80;50.91
70781;BME280;59514;48.810;2.134;2023-06-14T00:19:58;99793.00;;;19.77;51.12
70781;BME280;59514;48.810;2.134;2023-06-14T00:22:24;99796.81;;;19.76;51.94
70781;BME280;59514;48.810;2.134;2023-06-14T00:24:50;99787.53;;;19.77;51.52
70781;BME280;59514;48.810;2.134;2023-06-14T00:27:16;99798.44;;;19.77;51.33
70781;BME280;59514;48.810;2.134;2023-06-14T00:29:41;99791.88;;;19.78;51.75
70781;BME280;59514;48.810;2.134;2023-06-14T00:32:07;99796.81;;;19.76;51.85
70781;BME280;59514;48.810;2.134;2023-06-14T00:34:32;99795.00;;;19.72;51.97
70781;BME280;59514;48.810;2.134;2023-06-14T00:36:58;99800.63;;;19.62;53.50
70781;BME280;59514;48.810;2.134;2023-06-14T00:39:23;99805.72;;;19.50;53.77
70781;BME280;59514;48.810;2.134;2023-06-14T00:41:49;99807.03;;;19.15;54.28
70781;BME280;59514;48.810;2.134;2023-06-14T00:44:16;99802.03;;;19.04;55.48
70781;BME280;59514;48.810;2.134;2023-06-14T00:46:41;99805.50;;;19.09;56.97
70781;BME280;59514;48.810;2.134;2023-06-14T00:49:08;99801.38;;;18.93;56.47
70781;BME280;59514;48.810;2.134;2023-06-14T00:51:34;99805.03;;;18.65;56.93
70781;BME280;59514;48.810;2.134;2023-06-14T00:53:59;99807.19;;;18.44;57.19
70781;BME280;59514;48.810;2.134;2023-06-14T00:56:25;99811.78;;;18.44;59.21
70781;BME280;59514;48.810;2.134;2023-06-14T00:58:52;99814.19;;;18.50;57.28
70781;BME280;59514;48.810;2.134;2023-06-14T01:01:18;99810.72;;;18.45;56.45
70781;BME280;59514;48.810;2.134;2023-06-14T01:03:43;99812.28;;;18.51;58.15
70781;BME280;59514;48.810;2.134;2023-06-14T01:06:18;99809.47;;;18.56;59.47
70781;BME280;59514;48.810;2.134;2023-06-14T01:09:01;99806.72;;;18.61;58.81
70781;BME280;59514;48.810;2.134;2023-06-14T01:11:32;99809.69;;;18.36;58.43
70781;BME280;59514;48.810;2.134;2023-06-14T01:13:59;99819.28;;;18.28;57.12
70781;BME280;59514;48.810;2.134;2023-06-14T01:16:27;99810.00;;;18.05;58.86
70781;BME280;59514;48.810;2.134;2023-06-14T01:18:53;99814.28;;;18.12;58.39
70781;BME280;59514;48.810;2.134;2023-06-14T01:21:25;99811.75;;;18.20;59.94
70781;BME280;59514;48.810;2.134;2023-06-14T01:23:52;99812.63;;;18.16;58.01
70781;BME280;59514;48.810;2.134;2023-06-14T01:26:20;99813.75;;;18.15;58.26
70781;BME280;59514;48.810;2.134;2023-06-14T01:28:46;99817.69;;;18.27;57.56
70781;BME280;59514;48.810;2.134;2023-06-14T01:31:17;99817.31;;;18.34;58.83
70781;BME280;59514;48.810;2.134;2023-06-14T01:33:45;99817.31;;;18.34;57.24
70781;BME280;59514;48.810;2.134;2023-06-14T01:36:12;99814.72;;;18.24;60.46
70781;BME280;59514;48.810;2.134;2023-06-14T01:38:37;99811.50;;;17.93;59.40
70781;BME280;59514;48.810;2.134;2023-06-14T01:41:03;99809.41;;;17.85;59.25
70781;BME280;59514;48.810;2.134;2023-06-14T01:43:30;99807.09;;;17.73;61.58
70781;BME280;59514;48.810;2.134;2023-06-14T01:45:56;99811.47;;;17.69;61.93
70781;BME280;59514;48.810;2.134;2023-06-14T01:48:23;99797.81;;;17.74;60.44
70781;BME280;59514;48.810;2.134;2023-06-14T01:50:49;99807.41;;;17.67;62.00
70781;BME280;59514;48.810;2.134;2023-06-14T01:53:15;99812.25;;;17.70;60.55
70781;BME280;59514;48.810;2.134;2023-06-14T01:55:41;99807.41;;;17.67;60.21
70781;BME280;59514;48.810;2.134;2023-06-14T01:58:08;99804.41;;;17.68;61.18
70781;BME280;59514;48.810;2.134;2023-06-14T02:00:34;99803.31;;;17.69;60.62
70781;BME280;59514;48.810;2.134;2023-06-14T02:03:00;99809.31;;;17.66;60.14
70781;BME280;59514;48.810;2.134;2023-06-14T02:05:25;99806.19;;;17.44;63.03
70781;BME280;59514;48.810;2.134;2023-06-14T02:07:51;99804.00;;;17.51;62.15
70781;BME280;59514;48.810;2.134;2023-06-14T02:10:17;99802.13;;;17.52;62.64
70781;BME280;59514;48.810;2.134;2023-06-14T02:12:43;99807.25;;;17.48;61.86
70781;BME280;59514;48.810;2.134;2023-06-14T02:15:08;99813.88;;;17.37;62.75
70781;BME280;59514;48.810;2.134;2023-06-14T02:17:35;99816.66;;;17.27;63.76
70781;BME280;59514;48.810;2.134;2023-06-14T02:20:00;99814.22;;;17.26;63.13
70781;BME280;59514;48.810;2.134;2023-06-14T02:22:26;99821.50;;;17.30;62.82
70781;BME280;59514;48.810;2.134;2023-06-14T02:24:51;99816.06;;;17.30;62.70
70781;BME280;59514;48.810;2.134;2023-06-14T02:27:16;99817.19;;;17.29;62.26
70781;BME280;59514;48.810;2.134;2023-06-14T02:29:42;99817.19;;;17.29;63.07
70781;BME280;59514;48.810;2.134;2023-06-14T02:32:08;99813.34;;;17.30;63.92
70781;BME280;59514;48.810;2.134;2023-06-14T02:34:34;99814.28;;;17.15;63.51
70781;BME280;59514;48.810;2.134;2023-06-14T02:37:00;99814.59;;;17.14;62.98
70781;BME280;59514;48.810;2.134;2023-06-14T02:39:25;99819.19;;;17.13;63.40
70781;BME280;59514;48.810;2.134;2023-06-14T02:41:51;99811.88;;;17.09;63.23
70781;BME280;59514;48.810;2.134;2023-06-14T02:44:19;99815.16;;;17.06;64.82
70781;BME280;59514;48.810;2.134;2023-06-14T02:46:44;99814.41;;;16.95;64.04
70781;BME280;59514;48.810;2.134;2023-06-14T02:49:11;99813.53;;;17.05;63.85
70781;BME280;59514;48.810;2.134;2023-06-14T02:51:36;99817.38;;;16.99;64.87
70781;BME280;59514;48.810;2.134;2023-06-14T02:54:02;99820.84;;;17.04;64.03
70781;BME280;59514;48.810;2.134;2023-06-14T02:56:27;99821.66;;;17.05;63.67
70781;BME280;59514;48.810;2.134;2023-06-14T02:58:53;99823.31;;;17.06;63.56
70781;BME280;59514;48.810;2.134;2023-06-14T03:01:18;99827.94;;;17.00;64.72
70781;BME280;59514;48.810;2.134;2023-06-14T03:03:44;99825.78;;;16.97;64.08
70781;BME280;59514;48.810;2.134;2023-06-14T03:06:09;99827.66;;;17.02;65.40
70781;BME280;59514;48.810;2.134;2023-06-14T03:08:38;99829.03;;;16.99;63.90
70781;BME280;59514;48.810;2.134;2023-06-14T03:11:04;99833.09;;;16.97;64.66
70781;BME280;59514;48.810;2.134;2023-06-14T03:13:30;99832.03;;;16.93;66.08
70781;BME280;59514;48.810;2.134;2023-06-14T03:15:57;99833.72;;;16.84;66.50
70781;BME280;59514;48.810;2.134;2023-06-14T03:18:22;99838.56;;;16.92;65.44
70781;BME280;59514;48.810;2.134;2023-06-14T03:20:48;99834.00;;;16.82;66.70
70781;BME280;59514;48.810;2.134;2023-06-14T03:23:14;99841.28;;;16.87;66.38
70781;BME280;59514;48.810;2.134;2023-06-14T03:25:39;99845.06;;;16.91;66.87
70781;BME280;59514;48.810;2.134;2023-06-14T03:28:07;99847.78;;;16.91;65.38
70781;BME280;59514;48.810;2.134;2023-06-14T03:30:32;99848.34;;;16.88;65.95
70781;BME280;59514;48.810;2.134;2023-06-14T03:32:58;99847.06;;;16.75;65.94
70781;BME280;59514;48.810;2.134;2023-06-14T03:35:26;99852.19;;;16.77;65.52
70781;BME280;59514;48.810;2.134;2023-06-14T03:37:52;99858.50;;;16.62;68.12
70781;BME280;59514;48.810;2.134;2023-06-14T03:40:18;99857.72;;;16.52;67.29
70781;BME280;59514;48.810;2.134;2023-06-14T03:42:45;99856.34;;;16.49;67.72
70781;BME280;59514;48.810;2.134;2023-06-14T03:45:10;99869.09;;;16.49;67.36
70781;BME280;59514;48.810;2.134;2023-06-14T03:47:36;99863.09;;;16.47;67.16
70781;BME280;59514;48.810;2.134;2023-06-14T03:50:04;99868.53;;;16.47;68.16
70781;BME280;59514;48.810;2.134;2023-06-14T03:52:31;99869.91;;;16.44;68.38
70781;BME280;59514;48.810;2.134;2023-06-14T03:54:56;99870.44;;;16.46;67.77
70781;BME280;59514;48.810;2.134;2023-06-14T03:57:23;99871.25;;;16.42;67.99
70781;BME280;59514;48.810;2.134;2023-06-14T03:59:48;99865.03;;;16.31;67.98
70781;BME280;59514;48.810;2.134;2023-06-14T04:02:13;99866.94;;;16.35;68.00
70781;BME280;59514;48.810;2.134;2023-06-14T04:04:43;99871.31;;;16.21;68.06
70781;BME280;59514;48.810;2.134;2023-06-14T04:07:16;99873.44;;;16.29;68.02
70781;BME280;59514;48.810;2.134;2023-06-14T04:09:45;99875.59;;;16.37;67.63
70781;BME280;59514;48.810;2.134;2023-06-14T04:12:11;99880.22;;;16.37;67.44
70781;BME280;59514;48.810;2.134;2023-06-14T04:14:40;99879.94;;;16.33;67.21
70781;BME280;59514;48.810;2.134;2023-06-14T04:17:06;99881.31;;;16.36;67.51
70781;BME280;59514;48.810;2.134;2023-06-14T04:19:31;99879.38;;;16.36;67.39
70781;BME280;59514;48.810;2.134;2023-06-14T04:21:57;99881.56;;;16.34;67.57
70781;BME280;59514;48.810;2.134;2023-06-14T04:24:24;99892.94;;;16.36;67.88
70781;BME280;59514;48.810;2.134;2023-06-14T04:26:53;99888.06;;;16.38;67.46
70781;BME280;59514;48.810;2.134;2023-06-14T04:29:19;99889.44;;;16.36;68.71
70781;BME280;59514;48.810;2.134;2023-06-14T04:31:46;99887.81;;;16.25;68.35
70781;BME280;59514;48.810;2.134;2023-06-14T04:34:12;99898.94;;;16.18;69.71
70781;BME280;59514;48.810;2.134;2023-06-14T04:36:44;99898.13;;;16.08;69.69
70781;BME280;59514;48.810;2.134;2023-06-14T04:39:15;99906.53;;;16.16;69.77
70781;BME280;59514;48.810;2.134;2023-06-14T04:41:42;99903.53;;;16.18;69.22
70781;BME280;59514;48.810;2.134;2023-06-14T04:44:08;99913.56;;;16.17;69.71
70781;BME280;59514;48.810;2.134;2023-06-14T04:46:35;99905.72;;;16.11;69.55
70781;BME280;59514;48.810;2.134;2023-06-14T04:49:09;99907.63;;;16.10;69.59
70781;BME280;59514;48.810;2.134;2023-06-14T04:51:35;99913.03;;;16.10;69.63
70781;BME280;59514;48.810;2.134;2023-06-14T04:54:02;99910.59;;;16.09;70.79
70781;BME280;59514;48.810;2.134;2023-06-14T04:56:28;99905.97;;;16.09;70.06
70781;BME280;59514;48.810;2.134;2023-06-14T04:58:54;99907.34;;;16.12;70.47
70781;BME280;59514;48.810;2.134;2023-06-14T05:01:22;99905.47;;;16.12;70.35
70781;BME280;59514;48.810;2.134;2023-06-14T05:03:49;99909.78;;;16.28;69.34
70781;BME280;59514;48.810;2.134;2023-06-14T05:06:15;99910.53;;;16.39;69.47
70781;BME280;59514;48.810;2.134;2023-06-14T05:08:41;99914.34;;;16.38;70.14
70781;BME280;59514;48.810;2.134;2023-06-14T05:11:06;99912.19;;;16.50;70.63
70781;BME280;59514;48.810;2.134;2023-06-14T05:13:31;99914.03;;;16.70;70.78
70781;BME280;59514;48.810;2.134;2023-06-14T05:15:58;99911.72;;;17.07;69.69
70781;BME280;59514;48.810;2.134;2023-06-14T05:18:24;99910.25;;;17.30;69.76
70781;BME280;59514;48.810;2.134;2023-06-14T05:20:50;99916.16;;;17.37;67.19
70781;BME280;59514;48.810;2.134;2023-06-14T05:23:15;99917.53;;;17.39;67.03
70781;BME280;59514;48.810;2.134;2023-06-14T05:25:44;99907.88;;;17.62;69.24
70781;BME280;59514;48.810;2.134;2023-06-14T05:28:10;99916.53;;;17.69;67.83
70781;BME280;59514;48.810;2.134;2023-06-14T05:30:37;99911.88;;;17.74;68.23
70781;BME280;59514;48.810;2.134;2023-06-14T05:33:03;99912.00;;;17.59;67.53
70781;BME280;59514;48.810;2.134;2023-06-14T05:35:29;99917.66;;;17.63;68.33
70781;BME280;59514;48.810;2.134;2023-06-14T05:37:54;99921.00;;;17.88;67.70
70781;BME280;59514;48.810;2.134;2023-06-14T05:40:20;99925.09;;;18.20;66.31
70781;BME280;59514;48.810;2.134;2023-06-14T05:42:46;99916.69;;;18.16;66.71
70781;BME280;59514;48.810;2.134;2023-06-14T05:45:11;99917.00;;;18.15;67.30
70781;BME280;59514;48.810;2.134;2023-06-14T05:47:36;99924.13;;;18.05;67.28
70781;BME280;59514;48.810;2.134;2023-06-14T05:50:02;99920.38;;;18.01;67.75
70781;BME280;59514;48.810;2.134;2023-06-14T05:52:27;99917.53;;;18.12;67.12
70781;BME280;59514;48.810;2.134;2023-06-14T05:54:53;99919.75;;;18.09;67.01
70781;BME280;59514;48.810;2.134;2023-06-14T05:57:18;99918.38;;;18.12;67.23
70781;BME280;59514;48.810;2.134;2023-06-14T05:59:44;99919.41;;;18.16;67.72
70781;BME280;59514;48.810;2.134;2023-06-14T06:02:10;99919.09;;;18.23;67.00
70781;BME280;59514;48.810;2.134;2023-06-14T06:04:35;99925.00;;;18.30;66.67
70781;BME280;59514;48.810;2.134;2023-06-14T06:07:01;99931.16;;;18.40;66.19
70781;BME280;59514;48.810;2.134;2023-06-14T06:09:26;99934.56;;;18.56;66.21
70781;BME280;59514;48.810;2.134;2023-06-14T06:11:51;99934.94;;;18.73;65.99
70781;BME280;59514;48.810;2.134;2023-06-14T06:14:17;99941.03;;;19.07;65.55
70781;BME280;59514;48.810;2.134;2023-06-14T06:16:42;99936.97;;;19.28;63.45
70781;BME280;59514;48.810;2.134;2023-06-14T06:19:07;99931.19;;;19.35;61.96
70781;BME280;59514;48.810;2.134;2023-06-14T06:21:33;99940.31;;;19.44;60.25
70781;BME280;59514;48.810;2.134;2023-06-14T06:23:58;99947.63;;;19.48;60.87
70781;BME280;59514;48.810;2.134;2023-06-14T06:26:23;99942.03;;;19.58;60.25
70781;BME280;59514;48.810;2.134;2023-06-14T06:28:49;99938.94;;;19.65;59.90
70781;BME280;59514;48.810;2.134;2023-06-14T06:31:14;99945.25;;;19.79;58.77
70781;BME280;59514;48.810;2.134;2023-06-14T06:33:40;99945.31;;;19.93;58.46
70781;BME280;59514;48.810;2.134;2023-06-14T06:36:05;99947.09;;;20.02;57.77
70781;BME280;59514;48.810;2.134;2023-06-14T06:38:31;99953.78;;;20.10;57.57
70781;BME280;59514;48.810;2.134;2023-06-14T06:40:56;99956.88;;;20.22;56.95
70781;BME280;59514;48.810;2.134;2023-06-14T06:43:21;99946.47;;;20.24;56.61
70781;BME280;59514;48.810;2.134;2023-06-14T06:45:47;99954.38;;;20.39;55.78
70781;BME280;59514;48.810;2.134;2023-06-14T06:48:12;99954.00;;;20.45;55.67
70781;BME280;59514;48.810;2.134;2023-06-14T06:50:38;99948.06;;;20.57;56.20
70781;BME280;59514;48.810;2.134;2023-06-14T06:53:03;99958.41;;;20.60;55.26
70781;BME280;59514;48.810;2.134;2023-06-14T06:55:30;99956.78;;;20.73;53.60
70781;BME280;59514;48.810;2.134;2023-06-14T06:57:56;99969.13;;;20.84;54.49
70781;BME280;59514;48.810;2.134;2023-06-14T07:00:21;99969.94;;;20.98;53.62
70781;BME280;59514;48.810;2.134;2023-06-14T07:02:47;99969.25;;;21.06;54.15
70781;BME280;59514;48.810;2.134;2023-06-14T07:05:12;99969.56;;;21.18;53.82
70781;BME280;59514;48.810;2.134;2023-06-14T07:07:38;99969.78;;;21.21;53.47
70781;BME280;59514;48.810;2.134;2023-06-14T07:10:04;99969.97;;;21.25;52.78
70781;BME280;59514;48.810;2.134;2023-06-14T07:12:31;99976.22;;;21.39;52.21
70781;BME280;59514;48.810;2.134;2023-06-14T07:14:59;99979.66;;;21.44;52.04
70781;BME280;59514;48.810;2.134;2023-06-14T07:17:24;99981.16;;;21.51;52.26
70781;BME280;59514;48.810;2.134;2023-06-14T07:19:50;99979.31;;;21.60;51.74
70781;BME280;59514;48.810;2.134;2023-06-14T07:22:16;99985.38;;;21.70;50.30
70781;BME280;59514;48.810;2.134;2023-06-14T07:24:41;99990.41;;;21.77;50.73
70781;BME280;59514;48.810;2.134;2023-06-14T07:27:07;99992.47;;;21.85;49.99
70781;BME280;59514;48.810;2.134;2023-06-14T07:29:33;99988.69;;;21.94;47.81
70781;BME280;59514;48.810;2.134;2023-06-14T07:31:58;99994.72;;;22.05;49.51
70781;BME280;59514;48.810;2.134;2023-06-14T07:34:23;100000.25;;;22.13;48.52
70781;BME280;59514;48.810;2.134;2023-06-14T07:36:48;99996.66;;;22.26;48.36
70781;BME280;59514;48.810;2.134;2023-06-14T07:39:14;100001.81;;;22.28;46.46
70781;BME280;59514;48.810;2.134;2023-06-14T07:41:39;100002.16;;;22.35;45.24
70781;BME280;59514;48.810;2.134;2023-06-14T07:44:05;100000.91;;;22.41;47.02
70781;BME280;59514;48.810;2.134;2023-06-14T07:46:30;99998.25;;;22.50;45.64
70781;BME280;59514;48.810;2.134;2023-06-14T07:48:56;100008.72;;;22.70;46.65
70781;BME280;59514;48.810;2.134;2023-06-14T07:51:21;100006.31;;;22.77;43.53
70781;BME280;59514;48.810;2.134;2023-06-14T07:53:48;100017.66;;;22.84;43.77
70781;BME280;59514;48.810;2.134;2023-06-14T07:56:14;100009.28;;;22.89;44.12
70781;BME280;59514;48.810;2.134;2023-06-14T07:58:39;100014.31;;;22.95;44.10
70781;BME280;59514;48.810;2.134;2023-06-14T08:01:05;100016.66;;;23.10;43.09
70781;BME280;59514;48.810;2.134;2023-06-14T08:03:33;100015.56;;;23.20;42.65
70781;BME280;59514;48.810;2.134;2023-06-14T08:05:58;100017.53;;;23.28;44.96
70781;BME280;59514;48.810;2.134;2023-06-14T08:08:24;100017.44;;;23.42;44.73
70781;BME280;59514;48.810;2.134;2023-06-14T08:10:49;100010.31;;;23.41;42.73
70781;BME280;59514;48.810;2.134;2023-06-14T08:13:15;100012.94;;;23.46;43.16
70781;BME280;59514;48.810;2.134;2023-06-14T08:15:40;100015.06;;;23.57;44.33
70781;BME280;59514;48.810;2.134;2023-06-14T08:18:05;100026.00;;;23.57;41.53
70781;BME280;59514;48.810;2.134;2023-06-14T08:20:31;100026.53;;;23.68;41.53
70781;BME280;59514;48.810;2.134;2023-06-14T08:22:57;100026.03;;;23.74;40.34
70781;BME280;59514;48.810;2.134;2023-06-14T08:25:23;100029.16;;;23.90;40.86
70781;BME280;59514;48.810;2.134;2023-06-14T08:27:48;100026.56;;;24.02;41.29
70781;BME280;59514;48.810;2.134;2023-06-14T08:30:15;100029.34;;;24.11;41.27
70781;BME280;59514;48.810;2.134;2023-06-14T08:32:42;100020.94;;;24.24;39.44
70781;BME280;59514;48.810;2.134;2023-06-14T08:35:08;100020.13;;;24.32;41.04
70781;BME280;59514;48.810;2.134;2023-06-14T08:37:38;100020.31;;;24.36;38.64
70781;BME280;59514;48.810;2.134;2023-06-14T08:40:03;100022.25;;;24.44;40.80
70781;BME280;59514;48.810;2.134;2023-06-14T08:42:32;100028.22;;;24.37;36.38
70781;BME280;59514;48.810;2.134;2023-06-14T08:44:57;100029.47;;;24.48;37.41
70781;BME280;59514;48.810;2.134;2023-06-14T08:47:23;100039.47;;;24.61;37.67
70781;BME280;59514;48.810;2.134;2023-06-14T08:49:52;100037.84;;;24.69;34.56
70781;BME280;59514;48.810;2.134;2023-06-14T08:52:20;100028.16;;;24.71;35.42
70781;BME280;59514;48.810;2.134;2023-06-14T08:54:46;100035.91;;;24.87;37.03
70781;BME280;59514;48.810;2.134;2023-06-14T08:57:14;100033.28;;;24.99;36.73
70781;BME280;59514;48.810;2.134;2023-06-14T08:59:45;100030.34;;;25.04;34.71
70781;BME280;59514;48.810;2.134;2023-06-14T09:02:12;100032.09;;;25.08;34.89
70781;BME280;59514;48.810;2.134;2023-06-14T09:04:38;100032.56;;;25.19;34.02
70781;BME280;59514;48.810;2.134;2023-06-14T09:07:05;100038.03;;;25.27;34.27
70781;BME280;59514;48.810;2.134;2023-06-14T09:09:31;100029.91;;;25.31;34.58
70781;BME280;59514;48.810;2.134;2023-06-14T09:11:57;100028.75;;;25.40;34.89
70781;BME280;59514;48.810;2.134;2023-06-14T09:14:23;100032.25;;;25.49;33.01
70781;BME280;59514;48.810;2.134;2023-06-14T09:16:53;100033.84;;;25.59;30.66
70781;BME280;59514;48.810;2.134;2023-06-14T09:19:25;100035.28;;;25.65;29.92
70781;BME280;59514;48.810;2.134;2023-06-14T09:21:52;100037.16;;;25.73;31.64
70781;BME280;59514;48.810;2.134;2023-06-14T09:24:18;100039.72;;;25.78;31.24
70781;BME280;59514;48.810;2.134;2023-06-14T09:26:47;100035.31;;;25.77;32.27
70781;BME280;59514;48.810;2.134;2023-06-14T09:29:12;100038.06;;;25.77;32.52
70781;BME280;59514;48.810;2.134;2023-06-14T09:31:38;100031.66;;;25.73;32.25
70781;BME280;59514;48.810;2.134;2023-06-14T09:34:04;100036.69;;;25.92;32.65
70781;BME280;59514;48.810;2.134;2023-06-14T09:36:31;100037.94;;;26.03;30.43
70781;BME280;59514;48.810;2.134;2023-06-14T09:39:03;100049.78;;;25.95;29.89
70781;BME280;59514;48.810;2.134;2023-06-14T09:41:33;100047.94;;;26.07;29.60
70781;BME280;59514;48.810;2.134;2023-06-14T09:43:59;100039.19;;;26.05;29.47
70781;BME280;59514;48.810;2.134;2023-06-14T09:46:29;100037.09;;;26.11;30.23
70781;BME280;59514;48.810;2.134;2023-06-14T09:48:58;100046.06;;;26.20;30.43
70781;BME280;59514;48.810;2.134;2023-06-14T09:51:25;100044.59;;;26.22;30.76
70781;BME280;59514;48.810;2.134;2023-06-14T09:53:51;100051.09;;;26.38;28.47
70781;BME280;59514;48.810;2.134;2023-06-14T09:56:26;100049.75;;;26.44;28.43
70781;BME280;59514;48.810;2.134;2023-06-14T09:58:55;100050.69;;;26.49;28.17
70781;BME280;59514;48.810;2.134;2023-06-14T10:01:22;100052.22;;;26.58;28.27
70781;BME280;59514;48.810;2.134;2023-06-14T10:03:50;100049.50;;;26.70;28.12
70781;BME280;59514;48.810;2.134;2023-06-14T10:06:20;100048.56;;;26.66;27.08
70781;BME280;59514;48.810;2.134;2023-06-14T10:08:51;100039.69;;;26.81;27.50
70781;BME280;59514;48.810;2.134;2023-06-14T10:11:17;100046.16;;;27.09;27.73
70781;BME280;59514;48.810;2.134;2023-06-14T10:13:44;100057.41;;;26.92;27.14
70781;BME280;59514;48.810;2.134;2023-06-14T10:16:15;100048.91;;;26.97;26.71
70781;BME280;59514;48.810;2.134;2023-06-14T10:21:54;100050.31;;;27.15;26.10
70781;BME280;59514;48.810;2.134;2023-06-14T10:24:44;100052.50;;;27.10;26.78
70781;BME280;59514;48.810;2.134;2023-06-14T10:27:13;100055.03;;;27.15;26.25
70781;BME280;59514;48.810;2.134;2023-06-14T10:32:20;100046.09;;;27.78;26.07
70781;BME280;59514;48.810;2.134;2023-06-14T10:34:53;100041.78;;;28.17;24.53
70781;BME280;59514;48.810;2.134;2023-06-14T10:37:19;100040.25;;;28.32;24.94
70781;BME280;59514;48.810;2.134;2023-06-14T10:39:45;100036.38;;;28.48;24.94
70781;BME280;59514;48.810;2.134;2023-06-14T10:42:14;100034.31;;;28.57;23.36
70781;BME280;59514;48.810;2.134;2023-06-14T10:44:51;100049.81;;;28.50;23.07
70781;BME280;59514;48.810;2.134;2023-06-14T10:47:28;100040.19;;;28.99;23.22
70781;BME280;59514;48.810;2.134;2023-06-14T10:50:10;100040.78;;;28.92;23.28
70781;BME280;59514;48.810;2.134;2023-06-14T10:52:42;100043.19;;;29.10;23.66
70781;BME280;59514;48.810;2.134;2023-06-14T10:55:12;100032.88;;;29.22;22.71
70781;BME280;59514;48.810;2.134;2023-06-14T10:57:52;100037.25;;;29.54;22.56
70781;BME280;59514;48.810;2.134;2023-06-14T11:00:25;100032.38;;;29.67;22.51
70781;BME280;59514;48.810;2.134;2023-06-14T11:08:40;100029.06;;;30.12;21.01
70781;BME280;59514;48.810;2.134;2023-06-14T11:11:12;100033.59;;;30.20;21.48
70781;BME280;59514;48.810;2.134;2023-06-14T11:13:42;100029.53;;;30.14;21.53
70781;BME280;59514;48.810;2.134;2023-06-14T11:16:12;100026.94;;;30.05;21.21
70781;BME280;59514;48.810;2.134;2023-06-14T11:18:38;100024.56;;;30.23;22.12
70781;BME280;59514;48.810;2.134;2023-06-14T11:21:04;100022.53;;;30.20;22.17
70781;BME280;59514;48.810;2.134;2023-06-14T11:23:29;100022.72;;;30.69;21.66
70781;BME280;59514;48.810;2.134;2023-06-14T11:25:55;100036.66;;;30.91;21.26
70781;BME280;59514;48.810;2.134;2023-06-14T11:28:20;100027.28;;;30.99;21.47
70781;BME280;59514;48.810;2.134;2023-06-14T11:30:47;100013.97;;;30.67;21.50
70781;BME280;59514;48.810;2.134;2023-06-14T11:33:17;100016.66;;;30.82;21.39
70781;BME280;59514;48.810;2.134;2023-06-14T11:35:46;100017.22;;;31.36;20.35
70781;BME280;59514;48.810;2.134;2023-06-14T11:38:11;100029.50;;;31.35;21.77
70781;BME280;59514;48.810;2.134;2023-06-14T11:40:38;100019.09;;;31.29;21.02
70781;BME280;59514;48.810;2.134;2023-06-14T11:43:03;100014.22;;;31.00;20.82
70781;BME280;59514;48.810;2.134;2023-06-14T11:45:29;100012.47;;;31.60;20.28
70781;BME280;59514;48.810;2.134;2023-06-14T11:47:56;100017.41;;;31.24;19.97
70781;BME280;59514;48.810;2.134;2023-06-14T11:50:22;100015.06;;;30.81;20.54
70781;BME280;59514;48.810;2.134;2023-06-14T11:52:58;100012.50;;;30.92;21.29
70781;BME280;59514;48.810;2.134;2023-06-14T11:55:36;100007.38;;;30.33;20.94
70781;BME280;59514;48.810;2.134;2023-06-14T11:58:02;100019.84;;;31.26;20.70
70781;BME280;59514;48.810;2.134;2023-06-14T12:00:28;100015.00;;;30.78;19.92
70781;BME280;59514;48.810;2.134;2023-06-14T12:02:54;100017.78;;;31.00;20.57
70781;BME280;59514;48.810;2.134;2023-06-14T12:05:24;100016.94;;;31.94;20.04
70781;BME280;59514;48.810;2.134;2023-06-14T12:07:50;100012.31;;;32.01;19.78
70781;BME280;59514;48.810;2.134;2023-06-14T12:10:18;100018.63;;;32.61;19.32
70781;BME280;59514;48.810;2.134;2023-06-14T12:12:44;100017.13;;;32.08;20.46
70781;BME280;59514;48.810;2.134;2023-06-14T12:15:10;100018.34;;;32.40;20.09
70781;BME280;59514;48.810;2.134;2023-06-14T12:17:39;100014.97;;;32.94;19.23
70781;BME280;59514;48.810;2.134;2023-06-14T12:20:14;100026.03;;;32.87;18.91
70781;BME280;59514;48.810;2.134;2023-06-14T12:22:51;100018.13;;;32.92;18.69
70781;BME280;59514;48.810;2.134;2023-06-14T12:25:43;100017.91;;;32.71;18.65
70781;BME280;59514;48.810;2.134;2023-06-14T12:28:10;100015.13;;;33.08;19.04
70781;BME280;59514;48.810;2.134;2023-06-14T12:30:36;100014.94;;;32.90;18.98
70781;BME280;59514;48.810;2.134;2023-06-14T12:33:03;100015.00;;;32.28;19.27
70781;BME280;59514;48.810;2.134;2023-06-14T12:35:28;100017.47;;;32.03;20.33
70781;BME280;59514;48.810;2.134;2023-06-14T12:37:54;100009.84;;;31.70;20.11
70781;BME280;59514;48.810;2.134;2023-06-14T12:40:19;100012.56;;;31.93;20.20
70781;BME280;59514;48.810;2.134;2023-06-14T12:42:45;100014.84;;;32.13;19.89
70781;BME280;59514;48.810;2.134;2023-06-14T12:45:12;100017.47;;;32.03;20.71
70781;BME280;59514;48.810;2.134;2023-06-14T12:47:38;100015.41;;;32.59;19.85
70781;BME280;59514;48.810;2.134;2023-06-14T12:50:04;100015.91;;;32.35;20.61
70781;BME280;59514;48.810;2.134;2023-06-14T12:52:30;100015.75;;;32.54;19.58
70781;BME280;59514;48.810;2.134;2023-06-14T12:54:55;100019.09;;;32.70;18.50
70781;BME280;59514;48.810;2.134;2023-06-14T12:57:20;100013.00;;;32.94;19.07
70781;BME280;59514;48.810;2.134;2023-06-14T12:59:46;100020.66;;;33.04;18.96
70781;BME280;59514;48.810;2.134;2023-06-14T13:02:19;100025.69;;;33.36;19.20
70781;BME280;59514;48.810;2.134;2023-06-14T13:04:46;100015.72;;;33.82;19.03